Time;durP1;ratioP1;P1;durP2;ratioP2;P2;SDS_P1;SDS_P2;PMS_P1;PMS_P2;Temp;Humidity;BMP_temperature;BMP_pressure;BME280_temperature;BME280_humidity;BME280_pressure;Samples;Min_cycle;Max_cycle;Signal;HPM_P1;HPM_P2
2021/03/27 00:01:10;;;;;;;;;90.33;70.00;;;;;3.21;75.50;101677.38;5139943;27;9592;-73
2021/03/27 00:03:49;;;;;;;;;83.67;65.67;;;;;3.18;75.76;101676.00;5157297;27;8829;-74
2021/03/27 00:07:05;;;;;;;;;85.00;68.67;;;;;3.39;74.95;101681.69;5157488;27;8857;-74
2021/03/27 00:09:52;;;;;;;;;79.33;65.00;;;;;3.33;74.80;101673.41;5156552;27;8856;-73
2021/03/27 00:13:25;;;;;;;;;82.33;67.00;;;;;3.35;74.62;101673.16;5155779;27;8845;-74
2021/03/27 00:15:56;;;;;;;;;89.67;71.00;;;;;3.18;76.12;101670.53;5136622;27;8927;-74
2021/03/27 00:18:51;;;;;;;;;83.67;66.33;;;;;3.26;74.98;101675.53;5136708;27;8919;-73
2021/03/27 00:21:37;;;;;;;;;89.33;68.00;;;;;3.18;75.01;101672.44;5145787;27;8839;-74
2021/03/27 00:24:53;;;;;;;;;80.67;64.33;;;;;3.34;74.94;101676.97;5148281;27;8870;-74
2021/03/27 00:27:35;;;;;;;;;86.00;66.00;;;;;3.28;74.82;101676.09;5118952;27;8869;-74
2021/03/27 00:30:09;;;;;;;;;90.00;68.67;;;;;3.29;74.60;101674.19;5136668;27;8835;-74
2021/03/27 00:32:50;;;;;;;;;80.67;65.33;;;;;3.34;74.34;101675.06;5137002;27;8944;-74
2021/03/27 00:35:55;;;;;;;;;83.33;64.67;;;;;3.24;74.06;101669.50;5135709;27;9572;-74
2021/03/27 00:39:12;;;;;;;;;84.00;66.33;;;;;3.31;73.94;101667.38;5136342;27;9059;-74
2021/03/27 00:42:09;;;;;;;;;77.33;62.33;;;;;3.29;74.51;101660.50;5120405;27;9608;-74
2021/03/27 00:45:22;;;;;;;;;89.00;68.00;;;;;3.19;74.65;101669.44;5136807;27;8900;-74
2021/03/27 00:48:11;;;;;;;;;81.00;65.00;;;;;3.14;74.65;101666.63;5150859;27;8845;-74
2021/03/27 00:51:16;;;;;;;;;85.00;68.00;;;;;3.16;74.23;101667.22;5156600;27;9597;-74
2021/03/27 00:53:58;;;;;;;;;89.33;71.00;;;;;2.92;75.15;101672.16;5138649;27;8844;-74
2021/03/27 00:57:18;;;;;;;;;81.33;65.33;;;;;2.95;75.37;101668.91;5156577;27;8837;-74
2021/03/27 01:00:18;;;;;;;;;81.67;65.67;;;;;3.04;75.37;101672.81;5156405;27;8871;-74
2021/03/27 01:03:08;;;;;;;;;87.33;69.67;;;;;2.99;74.33;101669.22;5137394;27;9702;-74
2021/03/27 01:05:38;;;;;;;;;79.00;61.67;;;;;3.04;75.08;101667.38;5144834;27;8832;-74
2021/03/27 01:08:10;;;;;;;;;80.67;64.00;;;;;2.98;75.44;101657.44;5156463;27;8828;-75
2021/03/27 01:10:53;;;;;;;;;82.67;67.67;;;;;2.95;76.12;101668.09;5156369;27;8833;-75
2021/03/27 01:13:53;;;;;;;;;82.00;66.00;;;;;2.90;75.85;101673.47;5153552;27;8863;-74
2021/03/27 01:16:52;;;;;;;;;87.00;68.67;;;;;2.79;75.91;101675.28;5134704;27;8850;-75
2021/03/27 01:19:55;;;;;;;;;90.33;70.00;;;;;2.81;76.54;101684.03;5134189;27;8857;-74
2021/03/27 01:22:53;;;;;;;;;88.00;67.33;;;;;2.95;75.70;101679.84;5112094;27;8939;-75
2021/03/27 01:25:49;;;;;;;;;88.00;68.00;;;;;2.76;75.86;101683.97;5135438;27;8845;-74
2021/03/27 01:28:44;;;;;;;;;86.67;66.00;;;;;2.82;75.73;101682.13;5156366;27;8821;-73
2021/03/27 01:31:24;;;;;;;;;82.67;66.00;;;;;2.69;76.77;101691.56;5147858;27;8880;-74
2021/03/27 01:34:01;;;;;;;;;80.67;65.33;;;;;2.70;76.46;101677.63;5151589;27;8924;-73
2021/03/27 01:37:05;;;;;;;;;75.33;62.67;;;;;2.72;76.13;101686.41;5133086;27;8862;-73
2021/03/27 01:40:33;;;;;;;;;71.33;59.67;;;;;2.71;76.54;101679.28;5133681;27;8834;-73
2021/03/27 01:43:41;;;;;;;;;68.33;56.33;;;;;2.83;76.46;101681.03;5133529;27;8827;-73
2021/03/27 01:46:38;;;;;;;;;72.33;58.67;;;;;2.85;75.99;101693.38;5135867;27;8842;-73
2021/03/27 01:49:55;;;;;;;;;58.67;50.67;;;;;3.00;75.49;101695.47;5134424;27;8823;-74
2021/03/27 01:52:59;;;;;;;;;69.33;58.00;;;;;2.93;75.96;101692.94;5134652;27;8943;-74
2021/03/27 01:56:46;;;;;;;;;69.67;57.33;;;;;2.92;75.45;101698.66;5134429;27;8836;-75
2021/03/27 02:00:01;;;;;;;;;69.67;59.67;;;;;2.95;75.74;101704.44;5117142;27;9649;-73
2021/03/27 02:03:11;;;;;;;;;62.67;52.33;;;;;2.84;76.19;101702.66;5134169;27;8827;-74
2021/03/27 02:06:16;;;;;;;;;76.33;59.67;;;;;2.86;75.57;101697.78;5133642;27;8939;-74
2021/03/27 02:09:06;;;;;;;;;64.33;52.33;;;;;2.94;75.95;101697.31;5134401;27;9595;-73
2021/03/27 02:12:49;;;;;;;;;69.33;56.67;;;;;2.98;75.20;101706.66;5138107;27;9028;-74
2021/03/27 02:15:58;;;;;;;;;68.33;55.00;;;;;3.05;74.98;101712.75;5096910;27;8821;-73
2021/03/27 02:18:53;;;;;;;;;68.33;56.00;;;;;2.80;76.31;101706.97;5156096;27;8880;-73
2021/03/27 02:21:24;;;;;;;;;67.00;55.33;;;;;2.94;76.06;101701.97;5155209;27;8852;-74
2021/03/27 02:23:52;;;;;;;;;65.67;53.67;;;;;2.98;76.19;101709.38;5142655;27;8908;-74
2021/03/27 02:26:59;;;;;;;;;60.67;51.67;;;;;2.95;76.17;101706.34;5134368;27;8831;-74
2021/03/27 02:30:05;;;;;;;;;63.67;54.33;;;;;2.83;75.43;101708.38;5133928;27;8850;-73
2021/03/27 02:32:49;;;;;;;;;48.67;45.67;;;;;2.86;75.93;101708.69;5137053;27;8839;-74
2021/03/27 02:35:30;;;;;;;;;57.67;44.67;;;;;2.89;75.71;101702.72;5146532;27;8813;-73
2021/03/27 02:38:54;;;;;;;;;64.67;53.33;;;;;3.06;75.76;101708.91;5140467;27;8825;-73
2021/03/27 02:41:34;;;;;;;;;51.67;45.33;;;;;2.90;75.65;101706.28;5135135;27;8845;-74
2021/03/27 02:44:08;;;;;;;;;69.67;57.00;;;;;3.03;75.99;101701.25;5154433;27;9541;-74
2021/03/27 02:46:59;;;;;;;;;56.00;49.67;;;;;2.98;75.58;101697.63;5143608;27;8846;-74
2021/03/27 02:49:45;;;;;;;;;70.67;58.67;;;;;2.88;76.34;101698.34;5137771;27;8851;-74
2021/03/27 02:52:28;;;;;;;;;59.33;52.33;;;;;2.87;75.56;101715.00;5133866;27;8827;-74
2021/03/27 02:55:01;;;;;;;;;53.33;47.00;;;;;2.86;76.02;101708.69;5134617;27;8847;-74
2021/03/27 02:57:53;;;;;;;;;59.00;51.67;;;;;2.92;76.43;101710.41;5133760;27;8856;-73
2021/03/27 03:00:41;;;;;;;;;56.67;48.33;;;;;3.00;76.00;101709.16;5155884;27;8821;-74
2021/03/27 03:03:26;;;;;;;;;55.00;49.00;;;;;2.92;76.35;101707.69;5147981;27;8843;-74
2021/03/27 03:06:30;;;;;;;;;60.00;49.33;;;;;3.00;76.33;101715.44;5133193;27;8843;-74
2021/03/27 03:09:44;;;;;;;;;66.00;54.33;;;;;2.98;77.24;101714.00;5119929;27;8823;-74
2021/03/27 03:12:54;;;;;;;;;57.00;51.00;;;;;2.92;77.27;101723.25;5143067;27;8870;-74
2021/03/27 03:15:33;;;;;;;;;67.33;56.33;;;;;2.75;78.08;101726.84;5147886;27;8875;-73
2021/03/27 03:18:37;;;;;;;;;64.33;54.00;;;;;2.89;77.26;101723.75;5136504;27;8825;-73
2021/03/27 03:22:00;;;;;;;;;63.33;52.33;;;;;2.87;77.53;101718.53;5134649;27;8843;-73
2021/03/27 03:24:49;;;;;;;;;57.33;50.00;;;;;2.86;77.88;101725.09;5049800;28;8863;-74
2021/03/27 03:27:43;;;;;;;;;62.33;54.00;;;;;2.88;77.73;101717.47;5129466;27;8850;-74
2021/03/27 03:30:15;;;;;;;;;64.67;55.33;;;;;3.03;77.67;101722.28;5134435;27;8837;-74
2021/03/27 03:33:48;;;;;;;;;58.00;50.33;;;;;3.04;77.64;101729.41;5133456;27;8835;-74
2021/03/27 03:36:29;;;;;;;;;60.67;52.67;;;;;3.03;77.94;101727.75;5134616;27;8835;-74
2021/03/27 03:40:00;;;;;;;;;59.67;47.67;;;;;2.92;78.60;101735.00;5118109;27;8938;-74
2021/03/27 03:42:51;;;;;;;;;67.33;54.67;;;;;2.96;78.31;101738.88;5154984;27;8848;-74
2021/03/27 03:45:40;;;;;;;;;63.33;53.33;;;;;3.14;78.61;101743.19;5158059;27;9082;-74
2021/03/27 03:48:31;;;;;;;;;56.67;49.33;;;;;3.12;78.41;101736.31;5159013;27;8841;-74
2021/03/27 03:51:40;;;;;;;;;64.67;51.33;;;;;3.08;79.17;101743.41;5141323;27;8865;-74
2021/03/27 03:54:27;;;;;;;;;67.00;56.00;;;;;3.15;79.08;101738.56;5158361;27;8825;-74
2021/03/27 03:57:29;;;;;;;;;74.67;58.33;;;;;3.27;78.60;101736.50;5157834;27;8845;-73
2021/03/27 04:00:10;;;;;;;;;68.33;56.00;;;;;3.37;78.34;101743.97;5157596;27;8833;-73
2021/03/27 04:03:14;;;;;;;;;58.33;49.00;;;;;3.45;78.58;101749.84;5156181;27;8821;-72
2021/03/27 04:05:58;;;;;;;;;69.00;56.00;;;;;3.56;78.30;101746.13;5157635;27;8856;-73
2021/03/27 04:08:34;;;;;;;;;65.00;55.00;;;;;3.55;78.67;101751.84;5157182;27;8861;-74
2021/03/27 04:11:40;;;;;;;;;42.67;39.67;;;;;3.74;78.32;101755.84;5143049;27;8851;-74
2021/03/27 04:14:26;;;;;;;;;59.67;50.00;;;;;3.89;78.16;101753.25;5132460;27;8839;-74
2021/03/27 04:17:30;;;;;;;;;57.67;50.00;;;;;3.81;78.03;101755.66;5148381;27;8841;-74
2021/03/27 04:20:41;;;;;;;;;63.00;52.33;;;;;3.80;78.40;101757.56;5139336;27;9648;-74
2021/03/27 04:23:38;;;;;;;;;56.33;49.00;;;;;3.99;78.37;101760.75;5135963;27;8844;-73
2021/03/27 04:26:37;;;;;;;;;65.00;52.33;;;;;4.17;77.93;101757.59;5135797;27;8836;-74
2021/03/27 04:29:39;;;;;;;;;66.67;53.00;;;;;4.22;77.12;101764.19;5136188;27;8844;-74
2021/03/27 04:32:14;;;;;;;;;68.00;53.67;;;;;4.15;77.38;101770.75;5136433;27;8928;-74
2021/03/27 04:35:09;;;;;;;;;59.67;51.33;;;;;4.23;78.21;101771.34;5136362;27;8840;-74
2021/03/27 04:38:00;;;;;;;;;60.67;52.33;;;;;4.21;78.24;101768.84;5136121;27;8832;-74
2021/03/27 04:40:37;;;;;;;;;62.33;49.67;;;;;4.48;77.38;101768.78;5123601;27;8858;-73
2021/03/27 04:43:44;;;;;;;;;55.00;48.00;;;;;4.47;77.76;101783.56;5120618;27;8859;-73
2021/03/27 04:46:21;;;;;;;;;59.00;50.67;;;;;4.62;77.78;101774.63;5116797;27;11544;-73
2021/03/27 04:49:31;;;;;;;;;57.00;47.00;;;;;4.78;77.83;101778.28;5119034;27;11515;-73
2021/03/27 04:52:41;;;;;;;;;56.00;48.00;;;;;4.96;77.31;101786.88;5131096;27;11537;-73
2021/03/27 04:55:22;;;;;;;;;56.50;49.25;;;;;5.12;76.82;101779.53;5123152;27;11565;-73
2021/03/27 04:58:24;;;;;;;;;54.00;48.00;;;;;5.16;76.91;101791.63;5126829;27;11580;-73
2021/03/27 05:00:58;;;;;;;;;57.75;48.25;;;;;5.16;77.09;101788.91;5114736;28;11614;-74
2021/03/27 05:03:28;;;;;;;;;49.50;44.50;;;;;5.28;76.72;101796.88;5114625;28;11592;-73
2021/03/27 05:06:34;;;;;;;;;50.75;45.75;;;;;5.44;76.18;101797.75;5115002;28;11559;-74
2021/03/27 05:09:43;;;;;;;;;42.75;40.25;;;;;5.59;76.15;101795.06;5114995;27;11562;-74
2021/03/27 05:12:43;;;;;;;;;52.50;45.75;;;;;5.73;75.53;101796.19;5113967;28;11581;-73
2021/03/27 05:15:44;;;;;;;;;55.75;46.50;;;;;5.88;74.68;101791.84;5115440;28;11686;-74
2021/03/27 05:18:47;;;;;;;;;45.50;42.50;;;;;6.03;73.53;101800.13;5134550;27;11529;-74
2021/03/27 05:21:44;;;;;;;;;61.50;51.00;;;;;6.21;73.87;101798.75;5135353;27;12255;-74
2021/03/27 05:24:52;;;;;;;;;56.25;48.00;;;;;6.29;72.81;101798.22;5147309;27;11505;-73
2021/03/27 05:27:38;;;;;;;;;32.25;30.50;;;;;6.40;72.51;101806.16;5120705;27;11623;-74
2021/03/27 05:30:21;;;;;;;;;59.25;49.75;;;;;6.53;72.09;101801.22;5120672;27;11501;-74
2021/03/27 05:33:24;;;;;;;;;58.75;50.50;;;;;6.64;72.18;101802.84;5132010;27;11503;-75
2021/03/27 05:36:51;;;;;;;;;44.00;40.00;;;;;6.82;71.76;101802.25;5133583;27;11614;-75
2021/03/27 05:39:54;;;;;;;;;63.00;53.00;;;;;6.89;71.47;101802.78;5136231;27;11617;-74
2021/03/27 05:43:29;;;;;;;;;60.25;52.25;;;;;7.07;70.79;101806.06;5133586;27;11601;-74
2021/03/27 05:46:42;;;;;;;;;60.00;49.25;;;;;7.22;70.27;101806.81;5133976;27;11613;-74
2021/03/27 05:49:55;;;;;;;;;54.75;45.00;;;;;7.37;69.79;101816.94;5134939;27;11504;-74
2021/03/27 05:52:59;;;;;;;;;70.50;56.75;;;;;7.40;69.05;101813.63;5133708;27;11526;-74
2021/03/27 05:56:32;;;;;;;;;69.50;56.50;;;;;7.73;68.46;101814.00;5146346;27;11520;-75
2021/03/27 06:00:04;;;;;;;;;64.25;54.75;;;;;7.90;68.35;101816.38;5133628;27;11627;-75
2021/03/27 06:02:40;;;;;;;;;85.00;67.33;;;;;8.23;67.67;101820.28;5134263;27;11605;-74
2021/03/27 06:05:11;;;;;;;;;98.67;81.33;;;;;8.35;66.65;101818.81;5140135;27;11506;-74
2021/03/27 06:08:27;;;;;;;;;97.00;76.00;;;;;8.50;65.08;101825.31;5134747;27;8831;-74
2021/03/27 06:11:09;;;;;;;;;109.00;90.00;;;;;8.28;63.32;101828.47;5135616;27;8846;-80
2021/03/27 06:13:37;;;;;;;;;93.33;66.00;;;;;8.37;63.40;101837.03;5116467;27;8925;-78
2021/03/27 06:16:31;;;;;;;;;122.00;97.67;;;;;8.57;63.89;101832.13;5136046;27;8835;-77
2021/03/27 06:19:48;;;;;;;;;66.67;14.33;;;;;8.74;63.33;101836.38;5126017;27;9540;-78
2021/03/27 06:22:19;;;;;;;;;115.00;92.67;;;;;8.74;63.69;101844.66;5141636;27;8829;-78
2021/03/27 06:25:21;;;;;;;;;107.33;88.00;;;;;8.88;62.84;101845.63;5139767;27;8921;-76
2021/03/27 06:28:25;;;;;;;;;95.67;77.67;;;;;9.12;62.25;101843.75;5129889;27;8867;-76
2021/03/27 06:31:31;;;;;;;;;93.33;75.33;;;;;9.14;61.47;101838.75;5135026;27;11559;-78
2021/03/27 06:34:40;;;;;;;;;85.67;70.33;;;;;9.35;61.15;101844.00;5116306;27;8823;-76
2021/03/27 06:37:19;;;;;;;;;99.67;88.00;;;;;9.59;60.83;101846.78;5134077;27;11531;-77
2021/03/27 06:40:21;;;;;;;;;98.33;89.33;;;;;9.59;60.82;101836.53;5134160;27;8820;-78
2021/03/27 06:43:27;;;;;;;;;112.33;89.33;;;;;9.37;60.62;101842.63;5135487;27;8925;-79
2021/03/27 06:47:01;;;;;;;;;105.00;87.00;;;;;9.59;61.09;101838.47;5119474;27;8827;-79
2021/03/27 06:49:35;;;;;;;;;117.33;99.67;;;;;9.66;60.89;101833.38;5144023;27;8831;-79
2021/03/27 06:52:34;;;;;;;;;40.00;26.33;;;;;9.82;60.43;101845.09;5135860;27;8866;-78
2021/03/27 06:55:32;;;;;;;;;116.33;98.33;;;;;9.95;59.86;101845.13;5133289;27;8866;-77
2021/03/27 06:58:05;;;;;;;;;133.67;99.67;;;;;10.12;59.78;101846.53;5118597;27;8911;-75
2021/03/27 07:01:06;;;;;;;;;123.33;107.00;;;;;10.20;59.89;101845.91;5154044;27;8829;-78
2021/03/27 07:04:13;;;;;;;;;132.67;115.67;;;;;10.33;59.25;101847.09;5130389;27;8831;-78
2021/03/27 07:07:04;;;;;;;;;140.00;119.67;;;;;10.39;58.27;101852.25;5133042;27;8859;-78
2021/03/27 07:10:28;;;;;;;;;135.67;115.67;;;;;10.56;57.66;101846.97;5133877;27;8847;-78
2021/03/27 07:13:38;;;;;;;;;136.00;122.33;;;;;10.98;57.64;101858.16;5133605;27;8907;-78
2021/03/27 07:16:39;;;;;;;;;139.67;124.33;;;;;11.08;57.47;101867.09;5139311;27;8837;-78
2021/03/27 07:19:54;;;;;;;;;80.00;62.25;;;;;11.21;56.72;101859.94;5157446;27;8864;-77
2021/03/27 07:22:32;;;;;;;;;86.75;72.25;;;;;11.30;56.33;101860.84;5139308;27;11051;-78
2021/03/27 07:25:25;;;;;;;;;90.75;70.25;;;;;11.44;55.03;101860.03;5158519;27;11633;-76
2021/03/27 07:28:25;;;;;;;;;88.00;68.50;;;;;11.56;54.86;101863.09;5136425;27;11538;-78
2021/03/27 07:31:32;;;;;;;;;91.75;83.00;;;;;11.88;54.94;101867.69;5158035;27;11529;-78
2021/03/27 07:34:49;;;;;;;;;91.50;79.25;;;;;12.06;53.16;101868.69;5142994;27;11588;-77
2021/03/27 07:37:19;;;;;;;;;90.00;79.50;;;;;11.81;53.61;101870.06;5152456;27;11607;-77
2021/03/27 07:40:05;;;;;;;;;84.25;64.25;;;;;12.24;53.20;101873.25;5124462;27;11533;-77
2021/03/27 07:42:54;;;;;;;;;90.75;80.50;;;;;12.54;53.09;101874.47;5137239;27;11539;-78
2021/03/27 07:46:06;;;;;;;;;72.25;56.75;;;;;12.89;53.15;101883.03;5146359;27;11558;-79
2021/03/27 07:49:19;;;;;;;;;78.25;59.75;;;;;13.04;51.95;101880.69;5136713;27;11617;-77
2021/03/27 07:52:10;;;;;;;;;69.50;53.25;;;;;13.08;52.15;101881.66;5135573;27;11533;-77
2021/03/27 07:55:26;;;;;;;;;77.75;59.75;;;;;13.28;50.18;101880.31;5135986;27;11484;-78
2021/03/27 07:58:14;;;;;;;;;63.50;52.75;;;;;13.43;51.70;101883.81;5118679;27;11560;-77
2021/03/27 08:01:13;;;;;;;;;69.00;56.50;;;;;13.61;50.58;101875.19;5136853;27;11487;-78
2021/03/27 08:03:42;;;;;;;;;70.25;55.50;;;;;13.70;50.28;101879.97;5136775;27;11513;-77
2021/03/27 08:06:21;;;;;;;;;68.50;54.00;;;;;13.77;50.50;101875.56;5136520;27;11554;-77
2021/03/27 08:09:18;;;;;;;;;51.25;43.00;;;;;13.83;49.56;101876.25;5136476;27;11455;-77
2021/03/27 08:11:47;;;;;;;;;55.50;47.25;;;;;14.12;49.86;101876.44;5136204;27;11085;-78
2021/03/27 08:15:05;;;;;;;;;63.50;50.75;;;;;14.06;50.43;101872.19;5134897;27;11103;-77
2021/03/27 08:18:11;;;;;;;;;59.25;50.25;;;;;14.18;49.89;101880.72;5136492;27;11562;-78
2021/03/27 08:21:03;;;;;;;;;60.25;50.00;;;;;14.02;48.53;101876.75;5118468;27;11444;-77
2021/03/27 08:23:38;;;;;;;;;62.75;50.25;;;;;14.00;49.53;101876.25;5119399;27;11282;-76
2021/03/27 08:26:34;;;;;;;;;71.50;56.75;;;;;14.23;48.92;101873.34;5136348;27;11512;-77
2021/03/27 08:29:50;;;;;;;;;50.25;41.50;;;;;14.14;50.51;101870.56;5134696;27;11561;-78
2021/03/27 08:32:41;;;;;;;;;63.00;51.75;;;;;14.17;49.82;101879.06;5134899;27;11514;-78
2021/03/27 08:35:52;;;;;;;;;63.75;53.50;;;;;13.98;47.88;101878.56;5119595;27;11487;-78
2021/03/27 08:38:40;;;;;;;;;71.50;57.50;;;;;14.09;48.29;101879.06;5136818;27;11485;-76
2021/03/27 08:41:42;;;;;;;;;67.50;52.50;;;;;13.79;49.08;101875.22;5136233;27;11472;-78
2021/03/27 08:44:52;;;;;;;;;70.25;54.75;;;;;13.78;49.51;101879.97;5135213;27;11562;-79
2021/03/27 08:48:12;;;;;;;;;64.25;50.75;;;;;14.22;49.64;101880.06;5135911;27;11460;-76
2021/03/27 08:50:59;;;;;;;;;73.75;58.50;;;;;13.72;50.85;101886.00;5135705;27;11683;-76
2021/03/27 08:54:13;;;;;;;;;73.75;59.50;;;;;13.89;50.70;101886.06;5135763;27;11579;-75
2021/03/27 08:57:28;;;;;;;;;73.25;57.00;;;;;13.91;50.31;101895.72;5136724;27;11470;-75
2021/03/27 09:00:49;;;;;;;;;57.75;48.25;;;;;13.56;51.00;101893.97;5065504;28;11523;-76
2021/03/27 09:04:02;;;;;;;;;54.00;46.00;;;;;13.77;50.65;101888.66;5061454;28;11475;-75
2021/03/27 09:07:01;;;;;;;;;43.75;40.25;;;;;13.80;50.82;101891.63;5135209;27;11272;-76
2021/03/27 09:10:15;;;;;;;;;56.00;47.50;;;;;13.64;51.13;101896.78;5135845;27;11107;-76
2021/03/27 09:13:05;;;;;;;;;41.50;38.00;;;;;13.54;51.82;101902.66;5135117;27;11470;-75
2021/03/27 09:15:42;;;;;;;;;71.00;55.50;;;;;13.26;51.54;101901.22;5150396;27;10992;-77
2021/03/27 09:18:55;;;;;;;;;73.75;57.75;;;;;13.26;52.59;101898.44;5121400;27;11481;-75
2021/03/27 09:22:00;;;;;;;;;77.75;61.75;;;;;13.08;53.66;101906.66;5135256;27;11559;-76
2021/03/27 09:25:09;;;;;;;;;66.50;54.25;;;;;12.89;52.84;101903.28;5135338;27;11504;-76
2021/03/27 09:28:36;;;;;;;;;56.00;46.00;;;;;12.75;52.76;101911.69;5146221;27;11649;-75
2021/03/27 09:31:35;;;;;;;;;57.50;47.00;;;;;12.47;53.53;101913.75;5143282;27;11636;-76
2021/03/27 09:34:46;;;;;;;;;70.25;56.00;;;;;12.42;54.59;101919.44;5129024;27;11459;-75
2021/03/27 09:37:47;;;;;;;;;68.00;55.25;;;;;12.35;54.03;101916.28;5146395;27;11619;-76
2021/03/27 09:40:21;;;;;;;;;30.00;30.00;;;;;12.33;54.74;101920.47;5144894;27;11573;-78
2021/03/27 09:43:02;;;;;;;;;11.75;11.75;;;;;12.28;55.30;101929.75;5128044;27;11450;-77
2021/03/27 09:45:37;;;;;;;;;86.25;70.25;;;;;12.13;53.71;101921.78;5145506;27;11510;-77
2021/03/27 09:48:32;;;;;;;;;81.25;67.00;;;;;12.28;53.44;101929.75;5143746;27;11535;-76
2021/03/27 09:51:39;;;;;;;;;85.00;66.25;;;;;12.07;53.98;101926.59;5128845;27;11527;-76
2021/03/27 09:54:48;;;;;;;;;72.75;56.75;;;;;11.94;54.35;101924.66;5129738;27;11521;-76
2021/03/27 09:58:15;;;;;;;;;47.75;40.25;;;;;11.86;54.62;101931.75;5137057;27;11538;-76
2021/03/27 10:01:36;;;;;;;;;74.50;55.75;;;;;11.58;55.63;101932.88;5133865;27;12480;-76
2021/03/27 10:04:41;;;;;;;;;65.00;52.25;;;;;11.62;55.33;101931.13;5123675;27;11617;-77
2021/03/27 10:07:44;;;;;;;;;67.00;54.25;;;;;11.57;56.00;101934.00;5135728;27;11552;-75
2021/03/27 10:10:44;;;;;;;;;63.25;52.50;;;;;11.61;56.56;101930.31;5140578;27;11608;-76
2021/03/27 10:14:05;;;;;;;;;65.75;54.75;;;;;11.74;56.73;101927.84;5137944;27;11506;-77
2021/03/27 10:17:16;;;;;;;;;58.50;48.50;;;;;11.86;56.26;101925.41;5137754;27;11502;-78
2021/03/27 10:20:40;;;;;;;;;55.75;45.50;;;;;11.61;56.44;101930.31;5149101;27;11558;-76
2021/03/27 10:23:39;;;;;;;;;54.25;46.75;;;;;11.79;57.06;101930.50;5125419;27;11445;-76
2021/03/27 10:26:42;;;;;;;;;61.00;51.00;;;;;11.82;56.80;101930.75;5125831;27;11459;-77
2021/03/27 10:29:44;;;;;;;;;65.25;53.75;;;;;11.95;55.48;101929.91;5137268;27;11518;-77
2021/03/27 10:32:51;;;;;;;;;58.00;48.50;;;;;12.17;55.98;101936.66;5151014;27;12144;-77
2021/03/27 10:35:47;;;;;;;;;67.50;53.75;;;;;12.11;55.13;101932.34;5151251;27;11471;-77
2021/03/27 10:39:20;;;;;;;;;59.25;49.75;;;;;12.28;54.32;101935.31;5128283;27;11635;-77
2021/03/27 10:42:39;;;;;;;;;59.75;47.00;;;;;12.48;54.34;101931.22;5146334;27;11524;-76
2021/03/27 10:45:47;;;;;;;;;55.75;45.25;;;;;12.52;54.05;101937.78;5142152;27;11560;-76
2021/03/27 10:49:14;;;;;;;;;60.75;50.00;;;;;12.76;54.35;101945.81;5139284;27;11518;-76
2021/03/27 10:52:35;;;;;;;;;63.00;51.00;;;;;12.43;53.99;101945.22;5128095;27;11432;-75
2021/03/27 10:55:59;;;;;;;;;77.25;61.75;;;;;12.35;54.70;101949.56;5149633;27;12303;-76
2021/03/27 10:59:24;;;;;;;;;90.25;82.75;;;;;12.45;53.73;101942.94;5080321;27;11552;-76
2021/03/27 11:02:47;;;;;;;;;75.50;61.50;;;;;12.31;53.25;101953.25;5147372;27;11524;-77
2021/03/27 11:06:03;;;;;;;;;66.50;55.00;;;;;12.78;53.32;101952.69;5144757;27;11564;-75
2021/03/27 11:09:16;;;;;;;;;69.00;55.00;;;;;13.19;53.27;101950.81;5145400;27;11581;-75
2021/03/27 11:12:46;;;;;;;;;50.50;44.00;;;;;13.61;52.34;101963.34;5145002;27;11544;-74
2021/03/27 11:16:06;;;;;;;;;55.00;46.75;;;;;13.90;50.80;101958.06;5129342;27;11465;-77
2021/03/27 11:19:30;;;;;;;;;45.50;40.00;;;;;14.06;50.37;101955.63;5132998;27;11438;-78
2021/03/27 11:22:44;;;;;;;;;42.00;38.25;;;;;14.13;49.06;101953.19;5141753;27;10963;-77
2021/03/27 11:25:33;;;;;;;;;51.00;42.75;;;;;14.14;49.32;101946.50;5146405;27;10692;-77
2021/03/27 11:28:39;;;;;;;;;45.50;38.75;;;;;14.13;48.44;101957.94;5147451;27;10791;-77
2021/03/27 11:31:34;;;;;;;;;48.25;41.25;;;;;14.43;48.40;101957.00;5148507;27;10644;-77
2021/03/27 11:34:40;;;;;;;;;49.50;42.75;;;;;15.05;48.61;101960.63;5151135;27;10557;-77
2021/03/27 11:37:59;;;;;;;;;55.50;47.50;;;;;15.08;45.76;101957.16;5129619;27;10628;-76
2021/03/27 11:41:16;;;;;;;;;54.75;47.25;;;;;15.62;44.93;101947.16;5146248;27;10734;-77
2021/03/27 11:44:04;;;;;;;;;54.75;44.75;;;;;15.86;44.88;101946.56;5130248;27;10868;-77
2021/03/27 11:47:10;;;;;;;;;51.50;44.00;;;;;16.33;43.24;101943.63;5131110;27;10607;-77
2021/03/27 11:50:20;;;;;;;;;55.00;45.75;;;;;16.75;41.82;101950.06;5147344;27;10444;-77
2021/03/27 11:53:23;;;;;;;;;48.25;41.00;;;;;16.35;42.29;101947.75;5146380;27;10392;-76
2021/03/27 11:56:20;;;;;;;;;49.50;42.25;;;;;16.05;40.40;101948.94;5124725;27;10228;-77
2021/03/27 12:02:43;;;;;;;;;49.25;40.75;;;;;16.01;42.30;101953.53;5147904;27;10092;-77
2021/03/27 12:05:38;;;;;;;;;39.50;36.50;;;;;15.47;43.96;101950.47;5127109;27;10830;-77
2021/03/27 12:08:19;;;;;;;;;52.50;43.00;;;;;15.27;43.72;101949.25;5145328;27;10144;-76
2021/03/27 12:11:27;;;;;;;;;53.75;44.25;;;;;15.00;44.87;101950.44;5145213;27;10541;-77
2021/03/27 12:14:17;;;;;;;;;41.00;36.50;;;;;14.93;44.13;101950.13;5128071;27;10384;-76
2021/03/27 12:16:51;;;;;;;;;43.50;36.75;;;;;14.81;43.90;101953.59;5151287;27;11175;-77
2021/03/27 12:19:58;;;;;;;;;29.50;28.25;;;;;14.53;43.91;101953.09;5141743;27;10181;-76
2021/03/27 12:22:37;;;;;;;;;38.00;35.75;;;;;14.58;42.56;101961.31;5146652;27;10087;-77
2021/03/27 12:25:30;;;;;;;;;39.00;35.75;;;;;14.89;43.35;101954.75;5146294;27;10084;-76
2021/03/27 12:28:26;;;;;;;;;45.25;39.50;;;;;15.32;42.92;101951.84;5146386;27;10265;-76
2021/03/27 12:31:29;;;;;;;;;46.25;41.00;;;;;15.70;42.24;101956.66;5143635;27;10310;-76
2021/03/27 12:34:05;;;;;;;;;54.25;43.50;;;;;16.00;41.56;101961.09;5146833;27;9990;-76
2021/03/27 12:37:01;;;;;;;;;41.50;38.25;;;;;16.29;39.71;101957.47;5144099;27;10621;-77
2021/03/27 12:40:20;;;;;;;;;43.25;36.50;;;;;16.64;39.61;101958.03;5134055;27;9929;-76
2021/03/27 12:43:24;;;;;;;;;36.25;33.25;;;;;16.64;38.42;101957.22;5145432;27;10026;-77
2021/03/27 12:46:41;;;;;;;;;34.33;33.00;;;;;17.24;38.25;101962.22;5128037;27;9721;-76
2021/03/27 12:49:39;;;;;;;;;13.00;12.75;;;;;17.52;34.62;101959.59;5149208;27;9395;-74
2021/03/27 12:53:02;;;;;;;;;15.50;15.50;;;;;17.14;33.24;101956.25;5149042;27;8864;-77
2021/03/27 12:55:46;;;;;;;;;19.75;17.25;;;;;17.68;33.98;101961.72;5133096;27;8831;-76
2021/03/27 12:58:45;;;;;;;;;20.50;20.50;;;;;18.33;34.36;101949.47;5146756;27;8839;-77
2021/03/27 13:02:08;;;;;;;;;12.75;12.75;;;;;17.84;34.30;101957.09;5145731;27;8813;-75
2021/03/27 13:05:41;;;;;;;;;15.25;15.25;;;;;17.06;34.62;101960.78;5142640;27;8852;-76
2021/03/27 13:08:46;;;;;;;;;11.00;11.00;;;;;16.63;37.11;101950.78;5142224;27;8954;-77
2021/03/27 13:11:28;;;;;;;;;21.00;19.75;;;;;15.96;36.69;101964.91;5144538;27;9038;-75
2021/03/27 13:15:01;;;;;;;;;10.00;10.00;;;;;15.50;37.37;101952.63;5147183;27;8880;-77
2021/03/27 13:18:00;;;;;;;;;15.00;15.00;;;;;15.37;38.40;101956.44;5147899;27;9104;-76
2021/03/27 13:20:36;;;;;;;;;9.33;9.33;;;;;15.20;38.73;101958.13;5147513;27;9282;-75
2021/03/27 13:23:48;;;;;;;;;15.00;15.00;;;;;15.19;40.58;101966.81;5133207;27;9348;-76
2021/03/27 13:26:29;;;;;;;;;19.00;19.00;;;;;14.70;41.25;101966.19;5143604;27;9269;-77
2021/03/27 13:29:34;;;;;;;;;23.50;23.50;;;;;14.49;41.44;101966.03;5146082;27;9292;-76
2021/03/27 13:32:33;;;;;;;;;17.25;15.50;;;;;14.34;41.21;101966.50;5142191;27;9562;-76
2021/03/27 13:35:55;;;;;;;;;27.75;27.75;;;;;14.18;42.27;101966.97;5143694;27;9595;-76
2021/03/27 13:38:57;;;;;;;;;22.00;22.00;;;;;14.53;41.88;101964.25;5140258;27;9897;-77
2021/03/27 13:42:21;;;;;;;;;18.75;18.25;;;;;14.77;40.95;101963.75;5141746;27;9869;-77
2021/03/27 13:45:56;;;;;;;;;34.25;32.50;;;;;15.44;40.02;101954.75;5141866;27;9573;-76
2021/03/27 13:49:03;;;;;;;;;47.25;40.00;;;;;15.26;40.47;101962.38;5150896;27;9905;-77
2021/03/27 13:52:11;;;;;;;;;56.25;45.50;;;;;15.67;39.42;101963.72;5143997;27;10343;-76